sensor_id;sensor_type;location;lat;lon;timestamp;pressure;altitude;pressure_sealevel;temperature;humidity
80644;BME280;70010;60.224;24.712;2023-11-21T00:00:16;101660.37;;;-2.74;52.45
80644;BME280;70010;60.224;24.712;2023-11-21T00:02:41;101668.83;;;-3.21;54.69
80644;BME280;70010;60.224;24.712;2023-11-21T00:05:07;101667.84;;;-3.84;55.39
80644;BME280;70010;60.224;24.712;2023-11-21T00:07:32;101671.58;;;-2.92;52.82
80644;BME280;70010;60.224;24.712;2023-11-21T00:09:57;101673.58;;;-3.80;52.56
80644;BME280;70010;60.224;24.712;2023-11-21T00:12:22;101674.13;;;-3.09;51.95
80644;BME280;70010;60.224;24.712;2023-11-21T00:14:48;101672.44;;;-3.30;51.81
80644;BME280;70010;60.224;24.712;2023-11-21T00:17:13;101668.75;;;-2.70;50.86
80644;BME280;70010;60.224;24.712;2023-11-21T00:19:39;101666.91;;;-2.81;50.30
80644;BME280;70010;60.224;24.712;2023-11-21T00:22:04;101671.99;;;-2.55;49.36
80644;BME280;70010;60.224;24.712;2023-11-21T00:24:29;101680.09;;;-4.19;51.75
80644;BME280;70010;60.224;24.712;2023-11-21T00:26:55;101681.44;;;-4.06;52.64
80644;BME280;70010;60.224;24.712;2023-11-21T00:29:20;101683.66;;;-3.76;52.04
80644;BME280;70010;60.224;24.712;2023-11-21T00:31:46;101684.78;;;-4.73;52.72
80644;BME280;70010;60.224;24.712;2023-11-21T00:34:12;101690.76;;;-5.06;52.99
80644;BME280;70010;60.224;24.712;2023-11-21T00:36:36;101694.59;;;-3.96;51.15
80644;BME280;70010;60.224;24.712;2023-11-21T00:39:02;101692.34;;;-2.70;49.34
80644;BME280;70010;60.224;24.712;2023-11-21T00:41:27;101701.65;;;-6.97;57.34
80644;BME280;70010;60.224;24.712;2023-11-21T00:43:53;101699.34;;;-4.12;53.11
80644;BME280;70010;60.224;24.712;2023-11-21T00:46:18;101702.37;;;-5.04;54.32
80644;BME280;70010;60.224;24.712;2023-11-21T00:48:44;101702.64;;;-4.40;53.62
80644;BME280;70010;60.224;24.712;2023-11-21T00:51:09;101706.81;;;-5.20;53.28
80644;BME280;70010;60.224;24.712;2023-11-21T00:53:34;101711.02;;;-6.85;58.01
80644;BME280;70010;60.224;24.712;2023-11-21T00:56:00;101710.12;;;-6.00;56.03
80644;BME280;70010;60.224;24.712;2023-11-21T00:58:25;101716.21;;;-7.08;58.86
80644;BME280;70010;60.224;24.712;2023-11-21T01:00:51;101725.32;;;-7.67;60.58
80644;BME280;70010;60.224;24.712;2023-11-21T01:03:16;101722.12;;;-6.90;58.61
80644;BME280;70010;60.224;24.712;2023-11-21T01:05:42;101725.11;;;-7.80;60.47
80644;BME280;70010;60.224;24.712;2023-11-21T01:08:07;101717.33;;;-6.18;57.92
80644;BME280;70010;60.224;24.712;2023-11-21T01:10:32;101716.06;;;-5.98;55.91
80644;BME280;70010;60.224;24.712;2023-11-21T01:12:58;101715.98;;;-6.74;57.45
80644;BME280;70010;60.224;24.712;2023-11-21T01:15:23;101720.22;;;-5.58;55.12
80644;BME280;70010;60.224;24.712;2023-11-21T01:17:49;101722.32;;;-5.65;54.90
80644;BME280;70010;60.224;24.712;2023-11-21T01:20:14;101721.35;;;-6.71;56.86
80644;BME280;70010;60.224;24.712;2023-11-21T01:22:40;101719.63;;;-6.61;58.24
80644;BME280;70010;60.224;24.712;2023-11-21T01:25:05;101717.48;;;-5.18;55.31
80644;BME280;70010;60.224;24.712;2023-11-21T01:27:30;101717.02;;;-6.20;55.95
80644;BME280;70010;60.224;24.712;2023-11-21T01:29:56;101718.83;;;-5.18;54.14
80644;BME280;70010;60.224;24.712;2023-11-21T01:32:21;101716.98;;;-5.74;54.50
80644;BME280;70010;60.224;24.712;2023-11-21T01:34:47;101721.12;;;-7.24;57.24
80644;BME280;70010;60.224;24.712;2023-11-21T01:37:11;101718.95;;;-5.00;54.50
80644;BME280;70010;60.224;24.712;2023-11-21T01:39:37;101719.86;;;-4.46;52.91
80644;BME280;70010;60.224;24.712;2023-11-21T01:42:03;101728.25;;;-7.74;57.91
80644;BME280;70010;60.224;24.712;2023-11-21T01:44:28;101722.82;;;-7.00;56.15
80644;BME280;70010;60.224;24.712;2023-11-21T01:46:53;101715.82;;;-5.63;53.64
80644;BME280;70010;60.224;24.712;2023-11-21T01:49:19;101716.90;;;-6.75;55.80
80644;BME280;70010;60.224;24.712;2023-11-21T01:51:48;101714.88;;;-6.85;55.34
80644;BME280;70010;60.224;24.712;2023-11-21T01:54:09;101717.46;;;-6.57;55.43
80644;BME280;70010;60.224;24.712;2023-11-21T01:56:35;101723.05;;;-7.67;57.69
80644;BME280;70010;60.224;24.712;2023-11-21T01:59:00;101724.09;;;-7.93;59.49
80644;BME280;70010;60.224;24.712;2023-11-21T02:01:26;101719.90;;;-7.39;57.24
80644;BME280;70010;60.224;24.712;2023-11-21T02:03:51;101719.14;;;-7.59;57.96
80644;BME280;70010;60.224;24.712;2023-11-21T02:06:17;101714.35;;;-7.30;56.56
80644;BME280;70010;60.224;24.712;2023-11-21T02:08:43;101715.55;;;-6.48;56.56
80644;BME280;70010;60.224;24.712;2023-11-21T02:11:07;101720.93;;;-7.57;57.50
80644;BME280;70010;60.224;24.712;2023-11-21T02:13:33;101719.77;;;-7.12;56.29
80644;BME280;70010;60.224;24.712;2023-11-21T02:15:58;101725.15;;;-7.83;58.67
80644;BME280;70010;60.224;24.712;2023-11-21T02:18:23;101727.01;;;-7.75;58.68
80644;BME280;70010;60.224;24.712;2023-11-21T02:20:49;101727.17;;;-7.29;57.09
80644;BME280;70010;60.224;24.712;2023-11-21T02:23:14;101727.03;;;-6.64;56.25
80644;BME280;70010;60.224;24.712;2023-11-21T02:25:39;101736.68;;;-7.49;56.60
80644;BME280;70010;60.224;24.712;2023-11-21T02:28:05;101741.27;;;-8.14;58.47
80644;BME280;70010;60.224;24.712;2023-11-21T02:30:31;101743.31;;;-8.17;59.22
80644;BME280;70010;60.224;24.712;2023-11-21T02:32:56;101745.13;;;-7.62;57.89
80644;BME280;70010;60.224;24.712;2023-11-21T02:35:22;101748.33;;;-7.77;58.39
80644;BME280;70010;60.224;24.712;2023-11-21T02:37:47;101748.29;;;-8.34;60.10
80644;BME280;70010;60.224;24.712;2023-11-21T02:40:12;101749.69;;;-7.59;59.12
80644;BME280;70010;60.224;24.712;2023-11-21T02:42:39;101744.86;;;-6.54;56.47
80644;BME280;70010;60.224;24.712;2023-11-21T02:45:04;101749.78;;;-7.66;57.85
80644;BME280;70010;60.224;24.712;2023-11-21T02:47:29;101741.00;;;-6.80;57.67
80644;BME280;70010;60.224;24.712;2023-11-21T02:49:54;101739.69;;;-5.42;54.63
80644;BME280;70010;60.224;24.712;2023-11-21T02:52:20;101749.85;;;-7.30;58.09
80644;BME280;70010;60.224;24.712;2023-11-21T02:54:45;101741.36;;;-5.89;55.10
80644;BME280;70010;60.224;24.712;2023-11-21T02:57:11;101742.67;;;-6.12;55.25
80644;BME280;70010;60.224;24.712;2023-11-21T02:59:36;101745.26;;;-6.81;56.78
80644;BME280;70010;60.224;24.712;2023-11-21T03:02:01;101744.57;;;-5.99;55.12
80644;BME280;70010;60.224;24.712;2023-11-21T03:04:27;101748.32;;;-7.39;58.36
80644;BME280;70010;60.224;24.712;2023-11-21T03:06:52;101745.52;;;-4.84;53.83
80644;BME280;70010;60.224;24.712;2023-11-21T03:09:18;101746.60;;;-6.90;57.12
80644;BME280;70010;60.224;24.712;2023-11-21T03:11:43;101746.44;;;-7.00;58.84
80644;BME280;70010;60.224;24.712;2023-11-21T03:14:08;101742.16;;;-5.26;53.83
80644;BME280;70010;60.224;24.712;2023-11-21T03:16:34;101740.86;;;-6.24;57.75
80644;BME280;70010;60.224;24.712;2023-11-21T03:18:59;101746.55;;;-7.57;60.43
80644;BME280;70010;60.224;24.712;2023-11-21T03:21:25;101741.51;;;-5.49;55.60
80644;BME280;70010;60.224;24.712;2023-11-21T03:23:50;101740.32;;;-5.49;56.03
80644;BME280;70010;60.224;24.712;2023-11-21T03:26:16;101740.54;;;-5.28;54.58
80644;BME280;70010;60.224;24.712;2023-11-21T03:28:41;101741.40;;;-6.02;55.35
80644;BME280;70010;60.224;24.712;2023-11-21T03:31:06;101739.37;;;-3.87;52.58
80644;BME280;70010;60.224;24.712;2023-11-21T03:33:31;101745.93;;;-5.42;55.29
80644;BME280;70010;60.224;24.712;2023-11-21T03:35:57;101747.90;;;-5.61;55.37
80644;BME280;70010;60.224;24.712;2023-11-21T03:38:23;101743.09;;;-3.81;52.86
80644;BME280;70010;60.224;24.712;2023-11-21T03:40:48;101746.65;;;-4.94;53.89
80644;BME280;70010;60.224;24.712;2023-11-21T03:43:14;101747.03;;;-3.94;53.84
80644;BME280;70010;60.224;24.712;2023-11-21T03:45:39;101753.33;;;-3.20;52.25
80644;BME280;70010;60.224;24.712;2023-11-21T03:48:05;101758.90;;;-3.27;51.35
80644;BME280;70010;60.224;24.712;2023-11-21T03:50:30;101764.45;;;-5.04;54.65
80644;BME280;70010;60.224;24.712;2023-11-21T03:52:55;101765.56;;;-2.60;51.26
80644;BME280;70010;60.224;24.712;2023-11-21T03:55:20;101767.94;;;-2.87;50.93
80644;BME280;70010;60.224;24.712;2023-11-21T03:57:46;101768.90;;;-4.61;54.78
80644;BME280;70010;60.224;24.712;2023-11-21T04:00:12;101764.51;;;-3.84;54.14
80644;BME280;70010;60.224;24.712;2023-11-21T04:02:37;101767.74;;;-3.26;52.33
80644;BME280;70010;60.224;24.712;2023-11-21T04:05:02;101765.63;;;-2.51;50.86
80644;BME280;70010;60.224;24.712;2023-11-21T04:07:27;101769.84;;;-3.08;52.16
80644;BME280;70010;60.224;24.712;2023-11-21T04:09:53;101774.56;;;-2.19;50.58
80644;BME280;70010;60.224;24.712;2023-11-21T04:12:19;101775.03;;;-2.14;50.63
80644;BME280;70010;60.224;24.712;2023-11-21T04:14:44;101776.62;;;-2.43;51.05
80644;BME280;70010;60.224;24.712;2023-11-21T04:17:09;101775.14;;;-2.22;50.71
80644;BME280;70010;60.224;24.712;2023-11-21T04:19:34;101782.52;;;-2.28;50.79
80644;BME280;70010;60.224;24.712;2023-11-21T04:22:00;101783.47;;;-2.46;50.91
80644;BME280;70010;60.224;24.712;2023-11-21T04:24:25;101786.20;;;-2.90;51.66
80644;BME280;70010;60.224;24.712;2023-11-21T04:26:50;101783.49;;;-2.36;50.22
80644;BME280;70010;60.224;24.712;2023-11-21T04:29:15;101788.28;;;-1.83;50.59
80644;BME280;70010;60.224;24.712;2023-11-21T04:31:40;101796.97;;;-2.28;51.22
80644;BME280;70010;60.224;24.712;2023-11-21T04:34:06;101794.47;;;-1.84;50.47
80644;BME280;70010;60.224;24.712;2023-11-21T04:36:31;101796.06;;;-1.97;50.77
80644;BME280;70010;60.224;24.712;2023-11-21T04:38:57;101797.17;;;-1.86;50.71
80644;BME280;70010;60.224;24.712;2023-11-21T04:41:23;101802.30;;;-2.70;52.38
80644;BME280;70010;60.224;24.712;2023-11-21T04:43:48;101804.94;;;-2.46;51.98
80644;BME280;70010;60.224;24.712;2023-11-21T04:46:13;101809.39;;;-2.44;52.45
80644;BME280;70010;60.224;24.712;2023-11-21T04:48:38;101806.92;;;-2.05;51.64
80644;BME280;70010;60.224;24.712;2023-11-21T04:51:04;101803.16;;;-2.09;51.45
80644;BME280;70010;60.224;24.712;2023-11-21T04:53:29;101809.23;;;-2.04;51.65
80644;BME280;70010;60.224;24.712;2023-11-21T04:55:54;101815.62;;;-4.17;55.54
80644;BME280;70010;60.224;24.712;2023-11-21T04:58:19;101818.01;;;-1.95;52.24
80644;BME280;70010;60.224;24.712;2023-11-21T05:00:44;101819.52;;;-2.31;52.67
80644;BME280;70010;60.224;24.712;2023-11-21T05:03:10;101821.85;;;-2.15;52.47
80644;BME280;70010;60.224;24.712;2023-11-21T05:05:35;101826.23;;;-2.72;52.94
80644;BME280;70010;60.224;24.712;2023-11-21T05:08:01;101824.75;;;-3.81;55.51
80644;BME280;70010;60.224;24.712;2023-11-21T05:10:26;101830.90;;;-1.97;52.75
80644;BME280;70010;60.224;24.712;2023-11-21T05:12:51;101833.95;;;-1.63;52.13
80644;BME280;70010;60.224;24.712;2023-11-21T05:15:17;101838.99;;;-2.13;52.29
80644;BME280;70010;60.224;24.712;2023-11-21T05:17:42;101836.89;;;-1.56;51.51
80644;BME280;70010;60.224;24.712;2023-11-21T05:20:08;101841.41;;;-1.62;51.20
80644;BME280;70010;60.224;24.712;2023-11-21T05:22:33;101843.15;;;-1.71;51.38
80644;BME280;70010;60.224;24.712;2023-11-21T05:24:59;101843.35;;;-1.77;51.60
80644;BME280;70010;60.224;24.712;2023-11-21T05:27:24;101850.88;;;-1.96;51.75
80644;BME280;70010;60.224;24.712;2023-11-21T05:29:50;101852.09;;;-1.66;51.26
80644;BME280;70010;60.224;24.712;2023-11-21T05:32:15;101855.61;;;-1.80;51.54
80644;BME280;70010;60.224;24.712;2023-11-21T05:34:41;101865.21;;;-2.59;52.80
80644;BME280;70010;60.224;24.712;2023-11-21T05:37:06;101862.56;;;-1.75;51.67
80644;BME280;70010;60.224;24.712;2023-11-21T05:39:31;101866.42;;;-2.72;53.38
80644;BME280;70010;60.224;24.712;2023-11-21T05:41:57;101866.50;;;-1.35;51.30
80644;BME280;70010;60.224;24.712;2023-11-21T05:44:22;101868.70;;;-1.70;51.66
80644;BME280;70010;60.224;24.712;2023-11-21T05:46:47;101876.50;;;-1.83;51.59
80644;BME280;70010;60.224;24.712;2023-11-21T05:49:13;101875.46;;;-1.44;51.42
80644;BME280;70010;60.224;24.712;2023-11-21T05:51:39;101878.08;;;-2.75;53.02
80644;BME280;70010;60.224;24.712;2023-11-21T05:54:04;101877.72;;;-1.92;52.28
80644;BME280;70010;60.224;24.712;2023-11-21T05:56:30;101874.83;;;-1.53;51.26
80644;BME280;70010;60.224;24.712;2023-11-21T05:58:55;101874.39;;;-1.46;51.02
80644;BME280;70010;60.224;24.712;2023-11-21T06:01:21;101877.92;;;-1.55;51.16
80644;BME280;70010;60.224;24.712;2023-11-21T06:03:46;101886.83;;;-1.58;51.52
80644;BME280;70010;60.224;24.712;2023-11-21T06:06:11;101886.96;;;-1.55;51.00
80644;BME280;70010;60.224;24.712;2023-11-21T06:08:37;101893.46;;;-1.88;51.65
80644;BME280;70010;60.224;24.712;2023-11-21T06:11:02;101897.82;;;-1.66;51.25
80644;BME280;70010;60.224;24.712;2023-11-21T06:13:27;101902.09;;;-1.61;50.89
80644;BME280;70010;60.224;24.712;2023-11-21T06:15:53;101900.91;;;-1.55;50.87
80644;BME280;70010;60.224;24.712;2023-11-21T06:18:19;101900.27;;;-1.44;50.60
80644;BME280;70010;60.224;24.712;2023-11-21T06:20:44;101906.97;;;-1.86;51.34
80644;BME280;70010;60.224;24.712;2023-11-21T06:23:10;101910.06;;;-1.62;50.84
80644;BME280;70010;60.224;24.712;2023-11-21T06:25:35;101910.16;;;-1.43;50.75
80644;BME280;70010;60.224;24.712;2023-11-21T06:28:01;101916.86;;;-1.30;50.42
80644;BME280;70010;60.224;24.712;2023-11-21T06:30:26;101916.99;;;-1.63;51.49
80644;BME280;70010;60.224;24.712;2023-11-21T06:32:51;101921.27;;;-1.92;50.90
80644;BME280;70010;60.224;24.712;2023-11-21T06:35:17;101921.19;;;-1.24;50.26
80644;BME280;70010;60.224;24.712;2023-11-21T06:37:42;101927.78;;;-2.00;50.93
80644;BME280;70010;60.224;24.712;2023-11-21T06:40:08;101928.36;;;-2.43;51.19
80644;BME280;70010;60.224;24.712;2023-11-21T06:42:33;101928.10;;;-1.79;50.83
80644;BME280;70010;60.224;24.712;2023-11-21T06:44:58;101933.29;;;-1.68;50.26
80644;BME280;70010;60.224;24.712;2023-11-21T06:47:24;101938.15;;;-1.31;50.00
80644;BME280;70010;60.224;24.712;2023-11-21T06:49:49;101943.75;;;-1.81;50.26
80644;BME280;70010;60.224;24.712;2023-11-21T06:52:15;101948.38;;;-1.45;49.68
80644;BME280;70010;60.224;24.712;2023-11-21T06:54:40;101950.41;;;-1.26;49.60
80644;BME280;70010;60.224;24.712;2023-11-21T06:57:06;101955.56;;;-1.85;50.59
80644;BME280;70010;60.224;24.712;2023-11-21T06:59:31;101961.84;;;-3.90;54.01
80644;BME280;70010;60.224;24.712;2023-11-21T07:01:56;101959.16;;;-1.81;50.36
80644;BME280;70010;60.224;24.712;2023-11-21T07:04:22;101967.15;;;-3.77;54.88
80644;BME280;70010;60.224;24.712;2023-11-21T07:06:47;101965.02;;;-2.92;52.81
80644;BME280;70010;60.224;24.712;2023-11-21T07:09:12;101974.19;;;-1.97;51.40
80644;BME280;70010;60.224;24.712;2023-11-21T07:11:38;101975.35;;;-1.95;51.12
80644;BME280;70010;60.224;24.712;2023-11-21T07:14:04;101976.26;;;-1.63;50.94
80644;BME280;70010;60.224;24.712;2023-11-21T07:16:29;101976.76;;;-1.15;49.89
80644;BME280;70010;60.224;24.712;2023-11-21T07:18:54;101982.87;;;-1.88;50.45
80644;BME280;70010;60.224;24.712;2023-11-21T07:21:19;101983.28;;;-1.91;50.57
80644;BME280;70010;60.224;24.712;2023-11-21T07:23:44;101984.15;;;-1.15;49.55
80644;BME280;70010;60.224;24.712;2023-11-21T07:26:09;101985.39;;;-1.10;49.07
80644;BME280;70010;60.224;24.712;2023-11-21T07:28:34;101989.06;;;-1.33;49.22
80644;BME280;70010;60.224;24.712;2023-11-21T07:31:00;101990.73;;;-1.65;49.66
80644;BME280;70010;60.224;24.712;2023-11-21T07:33:25;101992.18;;;-1.82;49.62
80644;BME280;70010;60.224;24.712;2023-11-21T07:35:51;101994.95;;;-1.44;49.04
80644;BME280;70010;60.224;24.712;2023-11-21T07:38:17;101998.60;;;-1.58;49.27
80644;BME280;70010;60.224;24.712;2023-11-21T07:40:42;101999.08;;;-1.61;49.25
80644;BME280;70010;60.224;24.712;2023-11-21T07:43:07;101999.38;;;-1.20;48.28
80644;BME280;70010;60.224;24.712;2023-11-21T07:45:32;102002.29;;;-1.63;48.95
80644;BME280;70010;60.224;24.712;2023-11-21T07:47:58;102009.34;;;-1.81;49.78
80644;BME280;70010;60.224;24.712;2023-11-21T07:50:23;102011.21;;;-1.91;49.98
80644;BME280;70010;60.224;24.712;2023-11-21T07:52:48;102011.61;;;-2.11;49.61
80644;BME280;70010;60.224;24.712;2023-11-21T07:55:13;102009.14;;;-1.61;48.99
80644;BME280;70010;60.224;24.712;2023-11-21T07:57:39;102009.94;;;-1.20;48.59
80644;BME280;70010;60.224;24.712;2023-11-21T08:00:05;102016.74;;;-1.34;48.03
80644;BME280;70010;60.224;24.712;2023-11-21T08:02:29;102015.97;;;-1.39;47.98
80644;BME280;70010;60.224;24.712;2023-11-21T08:04:54;102024.01;;;-1.56;48.58
80644;BME280;70010;60.224;24.712;2023-11-21T08:07:20;102027.20;;;-1.73;48.48
80644;BME280;70010;60.224;24.712;2023-11-21T08:09:45;102030.10;;;-1.26;47.94
80644;BME280;70010;60.224;24.712;2023-11-21T08:12:10;102031.76;;;-1.46;47.83
80644;BME280;70010;60.224;24.712;2023-11-21T08:14:36;102034.82;;;-1.38;47.75
80644;BME280;70010;60.224;24.712;2023-11-21T08:17:01;102037.51;;;-1.42;48.08
80644;BME280;70010;60.224;24.712;2023-11-21T08:19:26;102041.75;;;-1.11;47.71
80644;BME280;70010;60.224;24.712;2023-11-21T08:21:52;102045.87;;;-1.02;47.32
80644;BME280;70010;60.224;24.712;2023-11-21T08:24:17;102047.89;;;-1.41;47.85
80644;BME280;70010;60.224;24.712;2023-11-21T08:26:42;102052.38;;;-1.59;47.84
80644;BME280;70010;60.224;24.712;2023-11-21T08:29:08;102050.95;;;-1.11;47.85
80644;BME280;70010;60.224;24.712;2023-11-21T08:31:34;102054.16;;;-1.44;48.05
80644;BME280;70010;60.224;24.712;2023-11-21T08:33:59;102061.10;;;-1.77;48.56
80644;BME280;70010;60.224;24.712;2023-11-21T08:36:25;102062.73;;;-2.05;48.13
80644;BME280;70010;60.224;24.712;2023-11-21T08:38:50;102066.11;;;-1.20;47.39
80644;BME280;70010;60.224;24.712;2023-11-21T08:41:15;102067.77;;;-1.44;47.80
80644;BME280;70010;60.224;24.712;2023-11-21T08:43:41;102067.74;;;-2.20;48.30
80644;BME280;70010;60.224;24.712;2023-11-21T08:46:06;102068.54;;;-1.91;48.37
80644;BME280;70010;60.224;24.712;2023-11-21T08:48:31;102070.24;;;-1.43;47.84
80644;BME280;70010;60.224;24.712;2023-11-21T08:50:57;102073.79;;;-0.85;46.92
80644;BME280;70010;60.224;24.712;2023-11-21T08:53:22;102077.17;;;-2.05;48.43
80644;BME280;70010;60.224;24.712;2023-11-21T08:55:48;102080.19;;;-0.86;46.76
80644;BME280;70010;60.224;24.712;2023-11-21T08:58:13;102082.56;;;-1.45;47.51
80644;BME280;70010;60.224;24.712;2023-11-21T09:00:39;102081.35;;;-1.68;47.97
80644;BME280;70010;60.224;24.712;2023-11-21T09:03:03;102086.16;;;-3.58;51.75
80644;BME280;70010;60.224;24.712;2023-11-21T09:05:29;102085.37;;;-1.40;47.83
80644;BME280;70010;60.224;24.712;2023-11-21T09:07:54;102087.33;;;-1.08;47.13
80644;BME280;70010;60.224;24.712;2023-11-21T09:10:20;102090.17;;;-0.75;46.53
80644;BME280;70010;60.224;24.712;2023-11-21T09:12:45;102092.50;;;-1.37;47.62
80644;BME280;70010;60.224;24.712;2023-11-21T09:15:10;102092.99;;;-1.00;46.93
80644;BME280;70010;60.224;24.712;2023-11-21T09:17:35;102098.46;;;-1.64;47.12
80644;BME280;70010;60.224;24.712;2023-11-21T09:20:01;102102.42;;;-0.66;46.37
80644;BME280;70010;60.224;24.712;2023-11-21T09:22:26;102106.86;;;-0.59;46.17
80644;BME280;70010;60.224;24.712;2023-11-21T09:24:52;102108.30;;;-2.02;48.38
80644;BME280;70010;60.224;24.712;2023-11-21T09:27:18;102102.62;;;-1.73;47.96
80644;BME280;70010;60.224;24.712;2023-11-21T09:29:43;102105.47;;;-1.06;46.37
80644;BME280;70010;60.224;24.712;2023-11-21T09:32:08;102105.18;;;-1.23;47.29
80644;BME280;70010;60.224;24.712;2023-11-21T09:34:33;102107.28;;;-0.52;45.53
80644;BME280;70010;60.224;24.712;2023-11-21T09:36:59;102102.08;;;-0.53;45.90
80644;BME280;70010;60.224;24.712;2023-11-21T09:39:24;102105.17;;;-0.47;45.84
80644;BME280;70010;60.224;24.712;2023-11-21T09:41:51;102104.23;;;-0.47;45.92
80644;BME280;70010;60.224;24.712;2023-11-21T09:44:18;102105.81;;;-1.13;46.40
80644;BME280;70010;60.224;24.712;2023-11-21T09:46:42;102108.94;;;0.04;45.24
80644;BME280;70010;60.224;24.712;2023-11-21T09:49:09;102114.37;;;-0.26;45.50
80644;BME280;70010;60.224;24.712;2023-11-21T09:51:31;102112.58;;;-0.67;46.23
80644;BME280;70010;60.224;24.712;2023-11-21T09:53:57;102110.91;;;-1.73;47.42
80644;BME280;70010;60.224;24.712;2023-11-21T09:56:22;102114.78;;;-1.07;46.60
80644;BME280;70010;60.224;24.712;2023-11-21T09:58:47;102119.52;;;-1.99;48.23
80644;BME280;70010;60.224;24.712;2023-11-21T10:01:13;102115.42;;;-1.44;47.38
80644;BME280;70010;60.224;24.712;2023-11-21T10:03:37;102120.89;;;-0.77;46.52
80644;BME280;70010;60.224;24.712;2023-11-21T10:06:03;102123.94;;;-1.05;46.56
80644;BME280;70010;60.224;24.712;2023-11-21T10:08:28;102126.19;;;-0.61;45.84
80644;BME280;70010;60.224;24.712;2023-11-21T10:10:54;102128.31;;;-0.76;46.36
80644;BME280;70010;60.224;24.712;2023-11-21T10:13:19;102130.60;;;-0.87;45.98
80644;BME280;70010;60.224;24.712;2023-11-21T10:15:44;102127.96;;;-0.29;45.35
80644;BME280;70010;60.224;24.712;2023-11-21T10:18:09;102126.35;;;-2.16;47.19
80644;BME280;70010;60.224;24.712;2023-11-21T10:20:34;102137.61;;;-2.35;48.43
80644;BME280;70010;60.224;24.712;2023-11-21T10:23:00;102138.09;;;-2.29;48.99
80644;BME280;70010;60.224;24.712;2023-11-21T10:25:25;102138.01;;;-0.85;46.34
80644;BME280;70010;60.224;24.712;2023-11-21T10:27:57;102141.40;;;-1.72;47.09
80644;BME280;70010;60.224;24.712;2023-11-21T10:30:17;102143.38;;;-2.25;47.56
80644;BME280;70010;60.224;24.712;2023-11-21T10:32:42;102146.49;;;-2.03;48.52
80644;BME280;70010;60.224;24.712;2023-11-21T10:35:08;102146.74;;;-0.41;45.92
80644;BME280;70010;60.224;24.712;2023-11-21T10:37:33;102146.77;;;-1.49;46.95
80644;BME280;70010;60.224;24.712;2023-11-21T10:39:58;102147.75;;;-0.41;45.12
80644;BME280;70010;60.224;24.712;2023-11-21T10:42:23;102150.57;;;0.14;44.93
80644;BME280;70010;60.224;24.712;2023-11-21T10:44:48;102156.52;;;-2.11;48.26
80644;BME280;70010;60.224;24.712;2023-11-21T10:47:14;102157.50;;;-0.66;45.65
80644;BME280;70010;60.224;24.712;2023-11-21T10:49:39;102154.48;;;-0.84;45.49
80644;BME280;70010;60.224;24.712;2023-11-21T10:52:04;102157.51;;;-0.19;45.03
80644;BME280;70010;60.224;24.712;2023-11-21T10:54:30;102154.77;;;-0.84;45.57
80644;BME280;70010;60.224;24.712;2023-11-21T10:56:57;102152.08;;;-0.41;44.86
80644;BME280;70010;60.224;24.712;2023-11-21T10:59:20;102156.14;;;-0.05;44.43
80644;BME280;70010;60.224;24.712;2023-11-21T11:01:46;102158.35;;;-0.85;45.12
80644;BME280;70010;60.224;24.712;2023-11-21T11:04:12;102162.74;;;-0.60;45.36
80644;BME280;70010;60.224;24.712;2023-11-21T11:06:37;102162.58;;;-1.73;46.08
80644;BME280;70010;60.224;24.712;2023-11-21T11:09:02;102165.99;;;-0.52;44.93
80644;BME280;70010;60.224;24.712;2023-11-21T11:11:28;102165.87;;;-0.68;45.18
80644;BME280;70010;60.224;24.712;2023-11-21T11:13:53;102161.25;;;-1.53;46.11
80644;BME280;70010;60.224;24.712;2023-11-21T11:16:18;102161.15;;;-0.01;44.29
80644;BME280;70010;60.224;24.712;2023-11-21T11:18:43;102159.52;;;-0.41;44.30
80644;BME280;70010;60.224;24.712;2023-11-21T11:21:16;102159.05;;;-0.65;44.40
80644;BME280;70010;60.224;24.712;2023-11-21T11:23:46;102158.88;;;-0.53;45.05
80644;BME280;70010;60.224;24.712;2023-11-21T11:26:09;102158.59;;;-0.39;44.73
80644;BME280;70010;60.224;24.712;2023-11-21T11:28:33;102161.71;;;-1.51;45.36
80644;BME280;70010;60.224;24.712;2023-11-21T11:30:59;102166.47;;;-0.57;45.27
80644;BME280;70010;60.224;24.712;2023-11-21T11:33:22;102167.83;;;0.28;43.78
80644;BME280;70010;60.224;24.712;2023-11-21T11:35:49;102168.80;;;0.04;44.00
80644;BME280;70010;60.224;24.712;2023-11-21T11:38:06;102167.94;;;-0.81;45.48
80644;BME280;70010;60.224;24.712;2023-11-21T11:40:38;102168.75;;;-0.67;44.97
80644;BME280;70010;60.224;24.712;2023-11-21T11:42:57;102171.23;;;-0.02;44.18
80644;BME280;70010;60.224;24.712;2023-11-21T11:45:22;102171.46;;;-0.13;44.32
80644;BME280;70010;60.224;24.712;2023-11-21T11:47:48;102174.34;;;-1.89;46.22
80644;BME280;70010;60.224;24.712;2023-11-21T11:50:13;102177.26;;;-0.24;44.17
80644;BME280;70010;60.224;24.712;2023-11-21T11:52:39;102182.92;;;-0.72;44.41
80644;BME280;70010;60.224;24.712;2023-11-21T11:55:03;102184.39;;;-1.25;45.35
80644;BME280;70010;60.224;24.712;2023-11-21T11:57:30;102188.81;;;-0.24;44.42
80644;BME280;70010;60.224;24.712;2023-11-21T12:02:23;102191.08;;;-0.29;44.22
80644;BME280;70010;60.224;24.712;2023-11-21T12:04:44;102195.08;;;-0.40;44.73
80644;BME280;70010;60.224;24.712;2023-11-21T12:07:09;102198.18;;;-0.64;45.00
80644;BME280;70010;60.224;24.712;2023-11-21T12:09:37;102201.11;;;-2.28;47.60
80644;BME280;70010;60.224;24.712;2023-11-21T12:12:00;102202.86;;;-1.04;45.28
80644;BME280;70010;60.224;24.712;2023-11-21T12:14:25;102202.12;;;-1.30;45.70
80644;BME280;70010;60.224;24.712;2023-11-21T12:16:50;102209.07;;;-0.99;45.22
80644;BME280;70010;60.224;24.712;2023-11-21T12:19:16;102213.18;;;-0.79;45.22
80644;BME280;70010;60.224;24.712;2023-11-21T12:21:41;102216.85;;;-0.16;44.64
80644;BME280;70010;60.224;24.712;2023-11-21T12:24:07;102217.83;;;-1.28;45.77
80644;BME280;70010;60.224;24.712;2023-11-21T12:26:32;102221.53;;;-0.28;44.82
80644;BME280;70010;60.224;24.712;2023-11-21T12:28:57;102223.93;;;-0.90;44.87
80644;BME280;70010;60.224;24.712;2023-11-21T12:31:23;102232.19;;;-0.81;45.30